createdAt,value
2022-09-27T00:01:10.441Z,98425.09
2022-09-27T00:03:40.696Z,98422.56
2022-09-27T00:06:13.303Z,98412.50
2022-09-27T00:08:41.281Z,98415.84
2022-09-27T00:11:13.764Z,98409.16
2022-09-27T00:13:41.736Z,98412.50
2022-09-27T00:16:10.534Z,98405.78
2022-09-27T00:18:40.579Z,98413.28
2022-09-27T00:21:10.660Z,98407.41
2022-09-27T00:23:39.455Z,98407.47
2022-09-27T00:26:09.015Z,98394.91
2022-09-27T00:28:36.916Z,98398.25
2022-09-27T00:31:05.135Z,98391.56
2022-09-27T00:33:33.203Z,98383.97
2022-09-27T00:36:07.304Z,98373.97
2022-09-27T00:38:35.191Z,98371.50
2022-09-27T00:41:03.233Z,98371.50
2022-09-27T00:43:45.300Z,98354.78
2022-09-27T00:46:16.385Z,98365.63
2022-09-27T00:48:44.384Z,98358.94
2022-09-27T00:51:13.765Z,98364.81
2022-09-27T00:53:46.578Z,98345.59
2022-09-27T00:56:21.322Z,98360.66
2022-09-27T00:58:54.856Z,98345.66
2022-09-27T01:01:22.998Z,98334.81
2022-09-27T01:03:57.714Z,98340.72
2022-09-27T01:06:27.091Z,98348.31
2022-09-27T01:08:54.993Z,98345.00
2022-09-27T01:11:35.192Z,98327.44
2022-09-27T01:14:30.091Z,98323.25
2022-09-27T01:17:05.698Z,98324.09
2022-09-27T01:20:17.804Z,98323.25
2022-09-27T01:23:00.987Z,98320.75
2022-09-27T01:25:50.331Z,98312.41
2022-09-27T01:28:24.213Z,98314.06
2022-09-27T01:30:57.419Z,98317.41
2022-09-27T01:33:39.857Z,98314.06
2022-09-27T01:36:21.897Z,98325.78
2022-09-27T01:39:02.519Z,98306.50
2022-09-27T01:41:49.456Z,98297.31
2022-09-27T01:44:38.233Z,98302.34
2022-09-27T01:47:20.105Z,98291.50
2022-09-27T01:50:01.410Z,98292.34
2022-09-27T01:52:36.189Z,98284.03
2022-09-27T01:55:08.537Z,98289.00
2022-09-27T01:58:22.001Z,98289.84
2022-09-27T02:00:55.744Z,98285.63
2022-09-27T02:03:31.533Z,98286.44
2022-09-27T02:06:29.233Z,98283.88
2022-09-27T02:09:11.672Z,98273.84
2022-09-27T02:12:00.241Z,98275.50
2022-09-27T02:14:36.785Z,98257.09
2022-09-27T02:17:13.900Z,98249.56
2022-09-27T02:19:53.443Z,98257.88
2022-09-27T02:22:34.946Z,98249.56
2022-09-27T02:25:11.517Z,98250.50
2022-09-27T02:27:49.817Z,98251.31
2022-09-27T02:30:20.541Z,98237.09
2022-09-27T02:32:54.600Z,98235.38
2022-09-27T02:35:29.624Z,98238.75
2022-09-27T02:37:58.526Z,98230.38
2022-09-27T02:40:32.787Z,98232.09
2022-09-27T02:43:02.824Z,98235.44
2022-09-27T02:45:42.503Z,98235.47
2022-09-27T02:48:23.948Z,98233.84
2022-09-27T02:51:14.129Z,98234.75
2022-09-27T02:53:56.040Z,98233.06
2022-09-27T02:56:51.702Z,98221.38
2022-09-27T02:59:49.397Z,98213.81
2022-09-27T03:02:44.096Z,98216.31
2022-09-27T03:05:34.800Z,98211.28
2022-09-27T03:08:05.226Z,98224.66
2022-09-27T03:10:34.195Z,98225.50
2022-09-27T03:13:02.173Z,98227.22
2022-09-27T03:15:30.124Z,98210.56
2022-09-27T03:18:04.395Z,98219.75
2022-09-27T03:20:53.822Z,98224.75
2022-09-27T03:23:24.813Z,98218.06
2022-09-27T03:25:53.392Z,98217.25
2022-09-27T03:28:21.648Z,98202.22
2022-09-27T03:30:50.052Z,98204.72
2022-09-27T03:33:37.949Z,98218.06
2022-09-27T03:36:12.526Z,98214.75
2022-09-27T03:38:42.149Z,98210.59
2022-09-27T03:41:13.551Z,98189.72
2022-09-27T03:43:41.717Z,98207.22
2022-09-27T03:46:09.723Z,98199.72
2022-09-27T03:48:38.080Z,98198.03
2022-09-27T03:51:06.136Z,98203.00
2022-09-27T03:53:34.100Z,98195.47
2022-09-27T03:56:03.529Z,98195.53
2022-09-27T03:58:31.548Z,98193.00
2022-09-27T04:00:59.613Z,98190.47
2022-09-27T04:03:30.531Z,98197.97
2022-09-27T04:06:23.915Z,98200.44
2022-09-27T04:08:51.873Z,98195.41
2022-09-27T04:11:23.154Z,98182.03
2022-09-27T04:13:51.219Z,98180.31
2022-09-27T04:16:21.368Z,98183.63
2022-09-27T04:19:04.216Z,98173.63
2022-09-27T04:21:37.756Z,98175.28
2022-09-27T04:24:06.970Z,98169.50
2022-09-27T04:26:37.472Z,98181.22
2022-09-27T04:29:12.156Z,98170.41
2022-09-27T04:31:44.453Z,98173.75
2022-09-27T04:34:56.981Z,98165.41
2022-09-27T04:37:26.734Z,98180.44
2022-09-27T04:40:01.980Z,98179.59
2022-09-27T04:42:33.068Z,98180.38
2022-09-27T04:45:00.960Z,98175.34
2022-09-27T04:47:28.857Z,98187.91
2022-09-27T04:49:56.828Z,98182.06
2022-09-27T04:52:24.735Z,98191.34
2022-09-27T04:54:53.059Z,98188.00
2022-09-27T04:57:21.364Z,98187.16
2022-09-27T04:59:51.576Z,98179.66
2022-09-27T05:02:19.805Z,98179.66
2022-09-27T05:05:10.652Z,98182.16
2022-09-27T05:07:41.909Z,98190.53
2022-09-27T05:10:15.444Z,98177.97
2022-09-27T05:12:43.349Z,98172.97
2022-09-27T05:15:16.290Z,98160.47
2022-09-27T05:18:10.806Z,98160.50
2022-09-27T05:21:04.512Z,98154.63
2022-09-27T05:23:38.583Z,98158.00
2022-09-27T05:26:07.483Z,98151.31
2022-09-27T05:28:36.104Z,98149.63
2022-09-27T05:31:05.752Z,98140.41
2022-09-27T05:33:34.307Z,98135.38
2022-09-27T05:36:40.419Z,98129.50
2022-09-27T05:39:09.267Z,98132.00
2022-09-27T05:41:37.376Z,98126.91
2022-09-27T05:44:05.945Z,98118.50
2022-09-27T05:46:36.055Z,98113.44
2022-09-27T05:49:05.144Z,98098.38
2022-09-27T05:51:33.337Z,98102.63
2022-09-27T05:54:01.224Z,98101.78
2022-09-27T05:56:30.005Z,98100.97
2022-09-27T05:59:14.980Z,98093.47
2022-09-27T06:02:04.609Z,98093.44
2022-09-27T06:04:51.142Z,98099.16
2022-09-27T06:07:39.176Z,98102.31
2022-09-27T06:10:10.913Z,98100.53
2022-09-27T06:12:39.225Z,98095.41
2022-09-27T06:15:17.834Z,98092.84
2022-09-27T06:17:48.097Z,98097.81
2022-09-27T06:20:19.031Z,98094.50
2022-09-27T06:22:48.137Z,98099.56
2022-09-27T06:25:16.520Z,98090.41
2022-09-27T06:28:06.010Z,98091.22
2022-09-27T06:30:40.631Z,98097.06
2022-09-27T06:33:19.598Z,98083.63
2022-09-27T06:35:52.284Z,98099.38
2022-09-27T06:38:21.178Z,98094.38
2022-09-27T06:40:57.982Z,98094.44
2022-09-27T06:43:40.588Z,98092.59
2022-09-27T06:46:40.654Z,98087.28
2022-09-27T06:49:25.535Z,98079.53
2022-09-27T06:51:54.754Z,98082.72
2022-09-27T06:54:23.959Z,98081.75
2022-09-27T06:56:51.948Z,98080.88
2022-09-27T06:59:37.225Z,98085.03
2022-09-27T07:02:25.199Z,98074.78
2022-09-27T07:05:17.816Z,98079.84
2022-09-27T07:08:00.469Z,98083.44
2022-09-27T07:10:32.747Z,98076.91
2022-09-27T07:13:05.413Z,98075.31
2022-09-27T07:15:36.369Z,98076.94
2022-09-27T07:18:08.985Z,98070.91
2022-09-27T07:20:38.412Z,98069.88
2022-09-27T07:23:08.326Z,98068.88
2022-09-27T07:25:36.538Z,98074.53
2022-09-27T07:28:06.347Z,98060.28
2022-09-27T07:30:35.969Z,98069.41
2022-09-27T07:33:07.051Z,98066.09
2022-09-27T07:35:36.922Z,98079.28
2022-09-27T07:38:08.204Z,98074.31
2022-09-27T07:40:37.875Z,98070.25
2022-09-27T07:43:05.926Z,98073.50
2022-09-27T07:45:35.240Z,98062.59
2022-09-27T07:48:13.838Z,98069.94
2022-09-27T07:51:19.849Z,98065.34
2022-09-27T07:53:55.403Z,98065.00
2022-09-27T07:56:41.696Z,98073.34
2022-09-27T07:59:12.545Z,98071.72
2022-09-27T08:01:40.813Z,98077.75
2022-09-27T08:04:08.785Z,98069.31
2022-09-27T08:06:36.832Z,98076.94
2022-09-27T08:09:09.712Z,98079.47
2022-09-27T08:11:39.424Z,98062.91
2022-09-27T08:14:08.507Z,98067.03
2022-09-27T08:16:36.920Z,98067.97
2022-09-27T08:19:36.757Z,98067.97
2022-09-27T08:22:04.648Z,98065.47
2022-09-27T08:25:14.045Z,98046.38
2022-09-27T08:28:04.555Z,98058.81
2022-09-27T08:30:38.349Z,98058.84
2022-09-27T08:33:08.219Z,98063.31
2022-09-27T08:35:36.941Z,98059.44
2022-09-27T08:38:06.363Z,98049.44
2022-09-27T08:40:50.303Z,98047.06
2022-09-27T08:43:27.338Z,98047.25
2022-09-27T08:46:06.261Z,98041.44
2022-09-27T08:48:38.460Z,98043.97
2022-09-27T08:51:11.876Z,98047.97
2022-09-27T08:53:46.834Z,98050.47
2022-09-27T08:56:21.231Z,98048.78
2022-09-27T08:58:54.024Z,98042.91
2022-09-27T09:01:29.132Z,98040.41
2022-09-27T09:04:11.280Z,98046.22
2022-09-27T09:06:44.456Z,98044.53
2022-09-27T09:09:22.817Z,98047.91
2022-09-27T09:12:47.876Z,98040.59
2022-09-27T09:15:33.740Z,98043.09
2022-09-27T09:18:23.832Z,98029.63
2022-09-27T09:21:14.761Z,98042.91
2022-09-27T09:24:00.456Z,98038.69
2022-09-27T09:26:36.186Z,98050.44
2022-09-27T09:29:28.634Z,98047.91
2022-09-27T09:32:06.079Z,98048.75
2022-09-27T09:34:39.368Z,98045.38
2022-09-27T09:37:16.833Z,98034.50
2022-09-27T09:39:49.985Z,98011.84
2022-09-27T09:42:25.876Z,98008.53
2022-09-27T09:45:00.805Z,98023.44
2022-09-27T09:47:37.265Z,98022.53
2022-09-27T09:50:18.284Z,98019.19
2022-09-27T09:52:51.781Z,98010.81
2022-09-27T09:55:22.731Z,98012.44
2022-09-27T09:58:02.321Z,98008.88
2022-09-27T10:00:40.227Z,98002.88
2022-09-27T10:03:08.367Z,97993.50
2022-09-27T10:05:36.789Z,98000.16
2022-09-27T10:08:14.498Z,98003.53
2022-09-27T10:10:42.600Z,97997.78
2022-09-27T10:13:42.421Z,98001.91
2022-09-27T10:16:16.933Z,98004.34
2022-09-27T10:18:49.852Z,97990.88
2022-09-27T10:21:22.812Z,97982.56
2022-09-27T10:24:12.417Z,97979.13
2022-09-27T10:27:02.512Z,97965.50
2022-09-27T10:29:37.972Z,97968.84
2022-09-27T10:32:27.183Z,97968.00
2022-09-27T10:35:32.759Z,97971.38
2022-09-27T10:38:22.523Z,97974.69
2022-09-27T10:40:53.265Z,97971.47
2022-09-27T10:43:29.814Z,97969.03
2022-09-27T10:46:13.397Z,97966.56
2022-09-27T10:48:44.695Z,97969.94
2022-09-27T10:51:27.216Z,97968.28
2022-09-27T10:54:00.221Z,97982.56
2022-09-27T10:56:33.575Z,97976.88
2022-09-27T10:59:04.120Z,97979.50
2022-09-27T11:01:41.857Z,97974.78
2022-09-27T11:04:28.707Z,97971.59
2022-09-27T11:07:09.674Z,97967.38
2022-09-27T11:09:49.174Z,97948.91
2022-09-27T11:12:20.618Z,97952.19
2022-09-27T11:15:00.109Z,97951.38
2022-09-27T11:17:36.421Z,97940.38
2022-09-27T11:20:17.945Z,97941.91
2022-09-27T11:23:23.809Z,97931.56
2022-09-27T11:26:07.757Z,97936.31
2022-09-27T11:28:49.976Z,97926.31
2022-09-27T11:31:44.840Z,97936.44
2022-09-27T11:34:46.478Z,97953.22
2022-09-27T11:37:27.335Z,97960.19
2022-09-27T11:40:13.849Z,97958.97
2022-09-27T11:43:08.793Z,97971.16
2022-09-27T11:46:14.331Z,97961.19
2022-09-27T11:48:57.354Z,97985.81
2022-09-27T11:51:40.715Z,97975.94
2022-09-27T11:54:30.682Z,97963.47
2022-09-27T11:57:04.131Z,97966.81
2022-09-27T11:59:49.289Z,97966.06
2022-09-27T12:02:35.205Z,97975.22
2022-09-27T12:05:34.949Z,97971.03
2022-09-27T12:08:22.479Z,97969.25
2022-09-27T12:10:55.838Z,97969.97
2022-09-27T12:13:33.065Z,97979.19
2022-09-27T12:16:03.024Z,97967.47
2022-09-27T12:18:39.065Z,97974.06
2022-09-27T12:21:18.611Z,97979.06
2022-09-27T12:23:50.148Z,97999.13
2022-09-27T12:26:37.458Z,97989.94
2022-09-27T12:29:14.268Z,97997.47
2022-09-27T12:31:47.307Z,97994.09
2022-09-27T12:34:20.430Z,97997.34
2022-09-27T12:36:58.338Z,98000.53
2022-09-27T12:39:30.044Z,98002.97
2022-09-27T12:42:18.168Z,98004.34
2022-09-27T12:44:51.548Z,98017.47
2022-09-27T12:47:34.460Z,98023.09
2022-09-27T12:50:12.536Z,98026.38
2022-09-27T12:52:46.269Z,98031.41
2022-09-27T12:55:44.993Z,98030.69
2022-09-27T12:58:34.000Z,98029.94
2022-09-27T13:01:10.979Z,98022.25
2022-09-27T13:03:56.516Z,98033.84
2022-09-27T13:06:49.933Z,98021.91
2022-09-27T13:09:33.818Z,98021.59
2022-09-27T13:12:10.857Z,98020.50
2022-09-27T13:14:51.737Z,98006.84
2022-09-27T13:17:54.185Z,98010.06
2022-09-27T13:20:48.184Z,98009.94
2022-09-27T13:24:03.651Z,98013.28
2022-09-27T13:26:52.102Z,97997.03
2022-09-27T13:29:34.266Z,98003.47
2022-09-27T13:32:17.478Z,98008.53
2022-09-27T13:35:19.214Z,98027.75
2022-09-27T13:37:58.982Z,98033.59
2022-09-27T13:40:35.915Z,98035.22
2022-09-27T13:43:44.839Z,98036.84
2022-09-27T13:46:53.391Z,98037.63
2022-09-27T13:49:30.235Z,98030.19
2022-09-27T13:52:20.765Z,98024.28
2022-09-27T13:54:57.020Z,98024.22
2022-09-27T13:57:50.907Z,98020.19
2022-09-27T14:00:24.710Z,98028.09
2022-09-27T14:03:42.369Z,98026.56
2022-09-27T14:06:22.492Z,98012.25
2022-09-27T14:08:52.704Z,98002.25
2022-09-27T14:11:25.752Z,98016.25
2022-09-27T14:13:57.121Z,98018.75
2022-09-27T14:16:32.705Z,98024.56
2022-09-27T14:19:02.539Z,98030.28
2022-09-27T14:21:41.561Z,98031.03
2022-09-27T14:24:47.092Z,98035.22
2022-09-27T14:27:24.975Z,98032.03
2022-09-27T14:30:07.307Z,98013.06
2022-09-27T14:32:47.820Z,98024.66
2022-09-27T14:35:41.470Z,98034.78
2022-09-27T14:38:36.163Z,98036.50
2022-09-27T14:41:08.362Z,98024.97
2022-09-27T14:43:37.904Z,98040.81
2022-09-27T14:46:07.648Z,98043.44
2022-09-27T14:48:38.794Z,98045.19
2022-09-27T14:51:20.558Z,98044.47
2022-09-27T14:53:53.499Z,98046.19
2022-09-27T14:56:26.019Z,98046.22
2022-09-27T14:59:02.384Z,98057.19
2022-09-27T15:01:30.920Z,98059.06
2022-09-27T15:04:05.818Z,98054.97
2022-09-27T15:06:34.455Z,98047.47
2022-09-27T15:09:05.372Z,98039.19
2022-09-27T15:11:34.800Z,98039.19
2022-09-27T15:14:05.848Z,98038.38
2022-09-27T15:16:35.833Z,98040.09
2022-09-27T15:19:15.527Z,98038.47
2022-09-27T15:21:43.604Z,98037.63
2022-09-27T15:24:40.524Z,98034.34
2022-09-27T15:27:16.364Z,98042.06
2022-09-27T15:29:50.046Z,98045.38
2022-09-27T15:32:21.509Z,98045.41
2022-09-27T15:34:49.460Z,98045.41
2022-09-27T15:37:28.857Z,98050.38
2022-09-27T15:40:29.869Z,98038.66
2022-09-27T15:43:00.976Z,98049.53
2022-09-27T15:45:30.339Z,98056.25
2022-09-27T15:48:09.260Z,98055.47
2022-09-27T15:50:38.729Z,98054.63
2022-09-27T15:53:07.079Z,98061.41
2022-09-27T15:55:42.581Z,98065.63
2022-09-27T15:58:16.490Z,98066.56
2022-09-27T16:00:54.256Z,98064.13
2022-09-27T16:03:22.968Z,98070.91
2022-09-27T16:05:50.832Z,98064.31
2022-09-27T16:08:18.683Z,98076.03
2022-09-27T16:10:51.814Z,98070.22
2022-09-27T16:13:19.765Z,98070.31
2022-09-27T16:15:49.146Z,98088.72
2022-09-27T16:18:16.973Z,98088.78
2022-09-27T16:20:44.910Z,98096.34
2022-09-27T16:23:12.709Z,98087.16
2022-09-27T16:25:40.730Z,98090.50
2022-09-27T16:28:11.757Z,98090.53
2022-09-27T16:30:39.620Z,98097.25
2022-09-27T16:33:07.425Z,98093.94
2022-09-27T16:35:35.260Z,98105.69
2022-09-27T16:38:03.041Z,98104.00
2022-09-27T16:40:32.014Z,98096.50
2022-09-27T16:42:59.877Z,98110.72
2022-09-27T16:45:34.091Z,98107.38
2022-09-27T16:48:02.405Z,98111.56
2022-09-27T16:50:47.642Z,98120.78
2022-09-27T16:53:15.452Z,98118.28
2022-09-27T16:55:43.196Z,98120.00
2022-09-27T16:58:11.368Z,98123.38
2022-09-27T17:00:42.170Z,98120.88
2022-09-27T17:03:10.243Z,98119.19
2022-09-27T17:05:38.079Z,98121.72
2022-09-27T17:08:05.975Z,98123.44
2022-09-27T17:10:35.752Z,98125.94
2022-09-27T17:13:03.794Z,98130.97
2022-09-27T17:15:31.583Z,98124.28
2022-09-27T17:18:00.751Z,98130.16
2022-09-27T17:20:28.536Z,98108.50
2022-09-27T17:22:57.056Z,98121.81
2022-09-27T17:25:24.846Z,98129.34
2022-09-27T17:27:52.610Z,98126.06
2022-09-27T17:30:21.016Z,98129.41
2022-09-27T17:32:48.958Z,98136.09
2022-09-27T17:35:18.100Z,98136.09
2022-09-27T17:37:46.138Z,98127.75
2022-09-27T17:40:15.926Z,98121.06
2022-09-27T17:42:44.061Z,98126.06
2022-09-27T17:45:12.042Z,98131.91
2022-09-27T17:47:57.260Z,98124.38
2022-09-27T17:50:28.379Z,98130.25
2022-09-27T17:52:58.617Z,98131.13
2022-09-27T17:55:27.019Z,98126.13
2022-09-27T17:57:54.845Z,98127.81
2022-09-27T18:00:22.765Z,98125.31
2022-09-27T18:02:50.675Z,98132.91
2022-09-27T18:05:21.193Z,98137.94
2022-09-27T18:07:50.514Z,98132.09
2022-09-27T18:10:18.679Z,98134.63
2022-09-27T18:12:46.449Z,98136.31
2022-09-27T18:15:16.906Z,98129.59
2022-09-27T18:17:45.918Z,98142.97
2022-09-27T18:20:13.749Z,98143.84
2022-09-27T18:22:41.604Z,98146.38
2022-09-27T18:25:11.987Z,98138.88
2022-09-27T18:27:40.918Z,98140.50
2022-09-27T18:30:10.167Z,98145.53
2022-09-27T18:32:38.084Z,98140.50
2022-09-27T18:35:06.965Z,98138.84
2022-09-27T18:37:34.835Z,98148.91
2022-09-27T18:40:02.941Z,98168.13
2022-09-27T18:42:32.169Z,98165.59
2022-09-27T18:44:59.979Z,98168.94
2022-09-27T18:47:27.878Z,98164.75
2022-09-27T18:49:55.645Z,98171.41
2022-09-27T18:52:23.472Z,98163.06
2022-09-27T18:54:51.236Z,98171.44
2022-09-27T18:57:19.066Z,98171.44
2022-09-27T18:59:49.222Z,98175.63
2022-09-27T19:02:17.229Z,98176.47
2022-09-27T19:04:45.038Z,98178.97
2022-09-27T19:07:12.819Z,98179.84
2022-09-27T19:09:40.736Z,98183.22
2022-09-27T19:12:08.537Z,98185.72
2022-09-27T19:14:36.399Z,98192.44
2022-09-27T19:17:05.648Z,98191.59
2022-09-27T19:19:33.451Z,98183.25
2022-09-27T19:22:01.242Z,98189.94
2022-09-27T19:24:29.076Z,98193.31
2022-09-27T19:26:57.253Z,98202.50
2022-09-27T19:29:25.064Z,98191.66
2022-09-27T19:31:52.955Z,98193.34
2022-09-27T19:34:22.181Z,98193.34
2022-09-27T19:36:49.969Z,98192.50
2022-09-27T19:39:18.003Z,98180.88
2022-09-27T19:41:45.912Z,98196.78
2022-09-27T19:44:13.889Z,98199.31
2022-09-27T19:46:41.805Z,98204.34
2022-09-27T19:49:09.798Z,98174.34
2022-09-27T19:51:39.032Z,98199.34
2022-09-27T19:54:06.876Z,98208.53
2022-09-27T19:56:34.883Z,98190.16
2022-09-27T19:59:06.855Z,98203.53
2022-09-27T20:01:35.835Z,98194.31
2022-09-27T20:04:04.120Z,98201.03
2022-09-27T20:06:32.684Z,98181.88
2022-09-27T20:09:03.530Z,98205.25
2022-09-27T20:11:33.108Z,98192.72
2022-09-27T20:14:00.878Z,98201.91
2022-09-27T20:16:29.410Z,98206.94
2022-09-27T20:18:58.959Z,98192.75
2022-09-27T20:21:28.713Z,98199.41
2022-09-27T20:23:57.745Z,98191.13
2022-09-27T20:26:28.816Z,98196.97
2022-09-27T20:28:58.802Z,98209.50
2022-09-27T20:31:30.683Z,98214.50
2022-09-27T20:33:58.535Z,98235.38
2022-09-27T20:36:28.028Z,98232.09
2022-09-27T20:39:01.993Z,98231.25
2022-09-27T20:41:34.107Z,98221.25
2022-09-27T20:44:04.367Z,98214.56
2022-09-27T20:46:32.970Z,98217.06
2022-09-27T20:49:03.512Z,98215.44
2022-09-27T20:51:33.230Z,98229.63
2022-09-27T20:54:01.825Z,98220.47
2022-09-27T20:56:33.138Z,98220.47
2022-09-27T20:59:03.170Z,98212.13
2022-09-27T21:01:32.394Z,98225.50
2022-09-27T21:04:01.938Z,98225.50
2022-09-27T21:06:31.476Z,98238.88
2022-09-27T21:09:00.788Z,98236.38
2022-09-27T21:11:28.797Z,98233.03
2022-09-27T21:13:57.948Z,98244.72
2022-09-27T21:16:29.967Z,98239.75
2022-09-27T21:18:58.609Z,98238.91
2022-09-27T21:21:27.464Z,98234.75
2022-09-27T21:23:57.584Z,98242.25
2022-09-27T21:26:26.700Z,98232.22
2022-09-27T21:28:56.290Z,98229.72
2022-09-27T21:31:27.076Z,98233.06
2022-09-27T21:33:58.521Z,98228.06
2022-09-27T21:36:28.884Z,98228.06
2022-09-27T21:38:57.238Z,98226.38
2022-09-27T21:41:25.562Z,98235.56
2022-09-27T21:43:53.876Z,98236.41
2022-09-27T21:46:23.585Z,98240.59
2022-09-27T21:48:55.707Z,98239.75
2022-09-27T21:51:25.533Z,98233.91
2022-09-27T21:53:54.972Z,98220.59
2022-09-27T21:56:24.177Z,98232.28
2022-09-27T21:58:52.229Z,98228.09
2022-09-27T22:01:22.093Z,98223.13
2022-09-27T22:03:53.980Z,98224.78
2022-09-27T22:06:23.300Z,98205.56
2022-09-27T22:08:53.091Z,98201.38
2022-09-27T22:11:24.067Z,98216.44
2022-09-27T22:13:51.966Z,98211.44
2022-09-27T22:16:21.451Z,98222.28
2022-09-27T22:18:51.048Z,98227.28
2022-09-27T22:21:23.897Z,98228.09
2022-09-27T22:23:54.736Z,98228.94
2022-09-27T22:26:25.185Z,98217.28
2022-09-27T22:28:53.284Z,98218.09
2022-09-27T22:31:22.433Z,98219.78
2022-09-27T22:33:51.484Z,98212.28
2022-09-27T22:36:20.979Z,98232.28
2022-09-27T22:38:49.324Z,98228.94
2022-09-27T22:41:17.341Z,98240.63
2022-09-27T22:43:45.291Z,98247.28
2022-09-27T22:46:13.955Z,98240.63
2022-09-27T22:48:42.482Z,98240.63
2022-09-27T22:51:10.908Z,98245.63
2022-09-27T22:53:40.178Z,98241.47
2022-09-27T22:56:09.855Z,98243.97
2022-09-27T22:58:38.677Z,98248.97
2022-09-27T23:01:11.152Z,98246.47
2022-09-27T23:03:39.489Z,98220.59
2022-09-27T23:06:08.138Z,98248.13
2022-09-27T23:08:36.903Z,98252.31
2022-09-27T23:11:08.726Z,98243.97
2022-09-27T23:13:38.883Z,98243.13
2022-09-27T23:16:08.878Z,98219.75
2022-09-27T23:18:37.333Z,98238.94
2022-09-27T23:21:08.243Z,98237.25
2022-09-27T23:23:37.213Z,98223.06
2022-09-27T23:26:07.882Z,98233.91
2022-09-27T23:28:36.099Z,98234.75
2022-09-27T23:31:08.575Z,98229.75
2022-09-27T23:33:36.927Z,98233.09
2022-09-27T23:36:05.009Z,98228.09
2022-09-27T23:38:33.352Z,98227.28
2022-09-27T23:41:01.487Z,98233.09
2022-09-27T23:43:30.715Z,98235.56
2022-09-27T23:45:58.487Z,98257.28
2022-09-27T23:48:26.932Z,98262.28
2022-09-27T23:50:54.971Z,98249.75
2022-09-27T23:53:22.896Z,98253.09
2022-09-27T23:56:02.193Z,98257.25
2022-09-27T23:58:33.414Z,98253.91
